createdAt,value
2017-05-29T00:19:08.981Z,5.78
2017-05-29T00:40:15.875Z,5.92
2017-05-29T01:01:22.459Z,7.30
2017-05-29T01:22:29.380Z,5.18
2017-05-29T01:46:42.928Z,5.68
2017-05-29T02:07:49.482Z,7.04
2017-05-29T02:28:57.338Z,6.08
2017-05-29T02:50:03.864Z,5.32
2017-05-29T03:11:10.112Z,7.90
2017-05-29T03:32:16.308Z,5.96
2017-05-29T03:53:21.931Z,6.52
2017-05-29T04:14:29.284Z,6.08
2017-05-29T04:35:35.464Z,5.32
2017-05-29T04:56:42.069Z,7.14
2017-05-29T05:17:48.297Z,6.68
2017-05-29T05:38:54.475Z,5.02
2017-05-29T06:00:01.769Z,5.38
2017-05-29T06:21:08.041Z,6.34
2017-05-29T06:42:14.283Z,5.68
2017-05-29T07:03:20.838Z,5.30
2017-05-29T07:24:27.666Z,5.58
2017-05-29T07:45:35.421Z,5.30
2017-05-29T08:06:42.989Z,6.38
2017-05-29T08:27:49.829Z,7.14
2017-05-29T08:48:56.292Z,5.60
2017-05-29T09:10:03.424Z,5.86
2017-05-29T09:31:10.561Z,5.84
2017-05-29T09:52:16.710Z,5.52
2017-05-29T10:13:23.234Z,6.30
2017-05-29T10:34:30.323Z,5.12
2017-05-29T10:55:36.020Z,6.58
2017-05-29T11:16:42.700Z,7.30
2017-05-29T11:37:49.311Z,4.70
2017-05-29T11:58:56.168Z,3.80
2017-05-29T12:20:01.937Z,4.06
2017-05-29T12:41:08.613Z,3.86
2017-05-29T13:02:16.294Z,3.08
2017-05-29T13:23:23.799Z,4.06
2017-05-29T13:50:44.864Z,4.28
2017-05-29T14:11:52.874Z,4.66
2017-05-29T14:32:59.492Z,4.26
2017-05-29T14:54:06.477Z,3.88
2017-05-29T15:15:12.407Z,3.52
2017-05-29T15:36:18.458Z,3.62
2017-05-29T15:57:25.484Z,3.32
2017-05-29T16:18:31.897Z,4.24
2017-05-29T16:39:39.561Z,3.44
2017-05-29T17:00:45.970Z,3.50
2017-05-29T17:21:53.165Z,4.64
2017-05-29T17:42:59.974Z,4.80
2017-05-29T18:04:05.880Z,5.86
2017-05-29T18:25:12.178Z,6.10
2017-05-29T18:46:18.858Z,6.00
2017-05-29T19:07:25.675Z,6.12
2017-05-29T19:28:32.321Z,5.52
2017-05-29T19:49:38.097Z,6.12
2017-05-29T20:10:44.288Z,6.12
2017-05-29T20:31:50.673Z,6.20
2017-05-29T20:52:57.252Z,7.26
2017-05-29T21:14:03.874Z,7.40
2017-05-29T21:35:10.124Z,6.82
2017-05-29T21:56:17.457Z,8.84
2017-05-29T22:17:23.566Z,8.42
2017-05-29T22:38:30.442Z,8.96
2017-05-29T22:59:36.826Z,7.20
2017-05-29T23:20:43.364Z,9.28
2017-05-29T23:41:50.151Z,7.58
